Time;durP1;ratioP1;P1;durP2;ratioP2;P2;SDS_P1;SDS_P2;PMS_P1;PMS_P2;Temp;Humidity;BMP_temperature;BMP_pressure;BME280_temperature;BME280_humidity;BME280_pressure;Samples;Min_cycle;Max_cycle;Signal;HPM_P1;HPM_P2
2023/01/02 00:01:54;;;;;;;4.10;2.58;;;21.20;69.70;;;;;;5006959;28;88598;-86
2023/01/02 00:04:20;;;;;;;5.85;3.25;;;21.20;69.60;;;;;;5006525;28;88867;-86
2023/01/02 00:06:45;;;;;;;5.70;2.95;;;21.20;69.80;;;;;;5006769;28;87267;-86
2023/01/02 00:09:11;;;;;;;4.85;2.58;;;21.20;69.70;;;;;;5006493;28;87059;-86
2023/01/02 00:11:37;;;;;;;4.72;2.95;;;21.20;69.70;;;;;;5006080;28;88028;-86
2023/01/02 00:14:02;;;;;;;5.18;2.85;;;21.20;69.70;;;;;;5007535;28;87777;-85
2023/01/02 00:16:28;;;;;;;5.40;2.72;;;21.20;69.80;;;;;;5006674;28;87699;-86
2023/01/02 00:18:54;;;;;;;4.40;2.40;;;21.10;69.70;;;;;;5006145;28;86651;-86
2023/01/02 00:21:19;;;;;;;4.68;2.72;;;21.10;69.70;;;;;;4995140;28;88143;-86
2023/01/02 00:23:45;;;;;;;5.97;2.55;;;21.10;69.80;;;;;;5005643;28;88295;-87
2023/01/02 00:26:10;;;;;;;5.85;2.72;;;21.10;70.20;;;;;;5008399;28;88596;-87
2023/01/02 00:28:37;;;;;;;5.93;2.53;;;21.10;69.90;;;;;;5009328;27;88171;-85
2023/01/02 00:31:11;;;;;;;5.45;2.85;;;21.10;70.00;;;;;;5007239;27;90308;-85
2023/01/02 00:33:37;;;;;;;4.85;2.65;;;21.10;70.00;;;;;;5008751;27;87951;-87
2023/01/02 00:36:11;;;;;;;5.15;2.72;;;21.10;70.40;;;;;;5009448;27;87470;-86
2023/01/02 00:38:38;;;;;;;4.07;2.85;;;21.10;70.10;;;;;;5008714;27;87577;-87
2023/01/02 00:41:04;;;;;;;3.72;2.70;;;21.10;70.20;;;;;;5010400;28;87843;-86
2023/01/02 00:43:29;;;;;;;3.90;2.45;;;21.10;70.10;;;;;;5008946;27;88047;-86
2023/01/02 00:45:55;;;;;;;5.68;2.42;;;21.10;70.10;;;;;;5008781;27;87421;-88
2023/01/02 00:48:21;;;;;;;3.72;2.78;;;21.00;70.10;;;;;;5008601;27;87984;-86
2023/01/02 00:50:47;;;;;;;4.75;2.65;;;21.10;70.00;;;;;;5008225;27;89196;-86
2023/01/02 00:53:13;;;;;;;4.20;2.58;;;21.00;69.80;;;;;;5009254;28;89592;-87
2023/01/02 00:55:38;;;;;;;3.63;2.40;;;21.00;70.10;;;;;;5009548;27;87379;-87
2023/01/02 00:58:04;;;;;;;4.97;2.83;;;21.00;70.00;;;;;;5012405;27;87732;-87
2023/01/02 01:00:30;;;;;;;4.05;2.42;;;21.00;70.00;;;;;;5011448;27;87719;-85
2023/01/02 01:02:57;;;;;;;4.00;2.78;;;21.00;70.10;;;;;;5011789;27;88363;-87
2023/01/02 01:05:26;;;;;;;5.03;3.03;;;21.00;69.80;;;;;;5012499;27;87335;-86
2023/01/02 01:07:56;;;;;;;3.83;2.70;;;21.00;70.00;;;;;;5013899;28;86855;-87
2023/01/02 01:10:24;;;;;;;3.38;2.22;;;21.00;70.00;;;;;;5011350;27;88244;-86
2023/01/02 01:12:50;;;;;;;3.88;2.78;;;21.00;70.10;;;;;;5011175;27;88117;-87
2023/01/02 01:15:16;;;;;;;4.32;2.45;;;21.00;70.00;;;;;;5012050;27;88738;-87
2023/01/02 01:17:42;;;;;;;4.30;2.67;;;20.90;70.00;;;;;;5012158;27;87956;-87
2023/01/02 01:20:08;;;;;;;5.13;2.47;;;20.90;70.00;;;;;;5011989;28;87466;-86
2023/01/02 01:22:33;;;;;;;4.00;2.25;;;20.90;70.00;;;;;;5011666;27;88263;-87
2023/01/02 01:24:59;;;;;;;4.50;2.75;;;20.90;70.10;;;;;;5012213;27;87468;-87
2023/01/02 01:27:25;;;;;;;4.88;2.65;;;20.90;70.20;;;;;;5011375;27;87678;-87
2023/01/02 01:29:50;;;;;;;4.15;2.28;;;20.90;70.20;;;;;;5012117;27;87661;-86
2023/01/02 01:32:16;;;;;;;3.35;2.35;;;20.90;70.20;;;;;;5011447;28;87887;-87
2023/01/02 01:34:42;;;;;;;5.43;3.40;;;20.90;70.10;;;;;;5011493;27;87285;-87
2023/01/02 01:37:08;;;;;;;4.50;2.63;;;20.90;69.90;;;;;;5011117;27;87145;-86
2023/01/02 01:39:33;;;;;;;3.90;2.60;;;20.90;70.00;;;;;;5009852;27;89664;-87
2023/01/02 01:42:00;;;;;;;2.85;2.13;;;20.80;69.80;;;;;;5010373;27;89878;-87
2023/01/02 01:44:51;;;;;;;5.57;2.70;;;20.80;69.80;;;;;;5011256;27;87294;-86
2023/01/02 01:47:41;;;;;;;3.55;2.70;;;20.80;70.00;;;;;;5010180;28;87760;-86
2023/01/02 01:50:15;;;;;;;4.72;2.60;;;20.80;70.00;;;;;;5008041;28;91529;-86
2023/01/02 01:52:50;;;;;;;4.47;2.60;;;20.80;69.90;;;;;;5008427;27;88307;-86
2023/01/02 01:55:19;;;;;;;3.10;2.42;;;20.80;70.00;;;;;;5010734;27;87355;-87
2023/01/02 01:58:07;;;;;;;3.75;2.20;;;20.80;70.00;;;;;;5010655;27;86591;-86
2023/01/02 02:00:33;;;;;;;3.63;2.10;;;20.80;70.00;;;;;;5012297;27;88618;-87
2023/01/02 02:03:06;;;;;;;3.28;2.58;;;20.80;70.00;;;;;;5010443;27;88537;-86
2023/01/02 02:05:32;;;;;;;3.35;2.58;;;20.80;69.90;;;;;;5010782;27;87863;-88
2023/01/02 02:08:22;;;;;;;4.53;2.70;;;20.80;69.80;;;;;;5012022;28;87512;-86
2023/01/02 02:10:50;;;;;;;3.10;2.50;;;20.80;69.80;;;;;;5011348;28;93322;-87
2023/01/02 02:13:18;;;;;;;3.38;2.30;;;20.70;69.90;;;;;;5010745;27;87510;-87
2023/01/02 02:16:18;;;;;;;4.32;2.67;;;20.80;70.20;;;;;;5011244;27;87166;-87
2023/01/02 02:19:19;;;;;;;2.67;2.20;;;20.70;70.10;;;;;;5010853;27;87565;-85
2023/01/02 02:22:20;;;;;;;2.83;1.98;;;20.70;69.90;;;;;;5010104;27;88167;-86
2023/01/02 02:25:23;;;;;;;4.22;2.78;;;20.70;70.20;;;;;;5011390;27;88311;-87
2023/01/02 02:28:07;;;;;;;4.30;2.42;;;20.70;70.10;;;;;;5002026;28;87274;-87
2023/01/02 02:30:55;;;;;;;5.40;2.80;;;20.70;69.80;;;;;;5010354;27;87868;-87
2023/01/02 02:33:39;;;;;;;4.90;2.45;;;20.70;69.70;;;;;;5010157;27;88518;-86
2023/01/02 02:36:18;;;;;;;3.88;2.50;;;20.70;69.60;;;;;;5009916;27;89930;-84
2023/01/02 02:39:00;;;;;;;4.10;2.05;;;20.70;69.80;;;;;;5025132;27;87777;-86
2023/01/02 02:41:43;;;;;;;3.58;2.25;;;20.70;69.90;;;;;;5011200;28;89728;-86
2023/01/02 02:44:40;;;;;;;3.85;2.38;;;20.70;69.90;;;;;;5000079;28;90856;-87
2023/01/02 02:47:12;;;;;;;3.03;2.40;;;20.70;70.00;;;;;;5009451;28;94007;-86
2023/01/02 02:49:59;;;;;;;6.60;2.88;;;20.70;69.80;;;;;;5010529;27;87029;-87
2023/01/02 02:52:28;;;;;;;3.13;2.30;;;20.70;70.00;;;;;;5010338;27;87976;-86
2023/01/02 02:55:17;;;;;;;2.70;2.17;;;20.70;70.20;;;;;;5009798;27;88287;-85
2023/01/02 02:57:45;;;;;;;3.97;2.25;;;20.60;69.90;;;;;;5010537;27;88865;-87
2023/01/02 03:00:18;;;;;;;3.67;2.35;;;20.60;69.80;;;;;;5010296;28;96401;-86
2023/01/02 03:02:44;;;;;;;2.50;2.08;;;20.60;69.80;;;;;;5009647;27;87445;-86
2023/01/02 03:05:13;;;;;;;4.18;2.45;;;20.60;69.80;;;;;;5010541;28;87202;-86
2023/01/02 03:07:45;;;;;;;2.97;2.00;;;20.60;69.80;;;;;;5009786;27;88310;-86
2023/01/02 03:10:16;;;;;;;4.28;2.38;;;20.60;69.70;;;;;;5010526;27;87453;-86
2023/01/02 03:13:36;;;;;;;5.78;2.65;;;20.60;69.90;;;;;;5010254;27;87572;-88
2023/01/02 03:16:04;;;;;;;3.15;2.03;;;20.60;69.80;;;;;;4968394;28;88421;-85
2023/01/02 03:18:55;;;;;;;3.83;2.60;;;20.60;70.50;;;;;;4967130;28;89230;-86
2023/01/02 03:21:47;;;;;;;2.72;1.95;;;20.60;69.70;;;;;;4967906;28;87163;-87
2023/01/02 03:24:17;;;;;;;4.13;2.72;;;20.60;69.90;;;;;;4967146;28;87627;-86
2023/01/02 03:26:47;;;;;;;3.05;1.90;;;20.60;69.90;;;;;;4967009;28;89527;-85
2023/01/02 03:29:30;;;;;;;4.47;2.60;;;20.60;70.00;;;;;;4967879;28;88221;-85
2023/01/02 03:31:57;;;;;;;2.97;2.28;;;20.60;69.80;;;;;;4968148;28;87250;-85
2023/01/02 03:34:28;;;;;;;3.17;2.20;;;20.50;69.90;;;;;;4966850;28;87404;-87
2023/01/02 03:37:00;;;;;;;3.97;2.67;;;20.60;70.10;;;;;;4967271;28;88606;-86
2023/01/02 03:39:29;;;;;;;3.78;2.40;;;20.50;69.80;;;;;;4967530;28;87934;-87
2023/01/02 03:42:26;;;;;;;3.22;2.15;;;20.50;69.80;;;;;;4968090;28;87227;-87
2023/01/02 03:45:27;;;;;;;3.03;2.30;;;20.60;69.70;;;;;;4899041;28;86658;-87
2023/01/02 03:48:01;;;;;;;2.35;1.98;;;20.50;69.70;;;;;;4859324;28;88731;-85
2023/01/02 03:50:33;;;;;;;3.28;2.30;;;20.50;69.80;;;;;;4875148;28;88360;-87
2023/01/02 03:52:59;;;;;;;4.03;2.38;;;20.50;69.60;;;;;;4879825;28;88077;-85
2023/01/02 03:55:35;;;;;;;4.25;2.22;;;20.50;69.70;;;;;;4877982;28;87180;-86
2023/01/02 03:58:26;;;;;;;3.63;2.30;;;20.50;69.70;;;;;;4881415;28;88610;-86
2023/01/02 04:01:03;;;;;;;4.50;2.33;;;20.50;69.40;;;;;;4879287;28;88349;-87
2023/01/02 04:03:46;;;;;;;2.97;2.42;;;20.50;69.40;;;;;;4880232;28;87596;-86
2023/01/02 04:06:15;;;;;;;3.20;2.13;;;20.50;69.70;;;;;;4879620;28;87731;-86
2023/01/02 04:08:46;;;;;;;;;;;20.50;69.90;;;;;;4879144;28;88152;-86
2023/01/02 04:11:16;;;;;;;4.05;1.98;;;20.50;69.70;;;;;;4882107;28;87223;-86
2023/01/02 04:13:47;;;;;;;5.45;2.40;;;20.50;69.90;;;;;;4880918;28;87268;-86
2023/01/02 04:16:19;;;;;;;4.13;2.35;;;20.50;69.80;;;;;;4878770;28;87683;-86
2023/01/02 04:18:53;;;;;;;2.33;1.95;;;20.50;69.70;;;;;;4878780;28;88840;-87
2023/01/02 04:21:23;;;;;;;2.63;2.00;;;20.50;69.80;;;;;;4905189;28;89371;-87
2023/01/02 04:23:58;;;;;;;2.10;1.80;;;20.50;69.60;;;;;;4954019;28;87172;-85
2023/01/02 04:26:51;;;;;;;3.22;2.30;;;20.50;69.60;;;;;;5009075;27;87767;-86
2023/01/02 04:29:17;;;;;;;2.97;1.95;;;20.50;69.50;;;;;;4977601;28;88410;-85
2023/01/02 04:32:01;;;;;;;4.15;2.35;;;20.50;69.80;;;;;;4980334;28;88041;-85
2023/01/02 04:34:31;;;;;;;3.42;2.33;;;20.50;69.60;;;;;;4981677;28;87612;-86
2023/01/02 04:37:05;;;;;;;3.42;2.35;;;20.50;69.60;;;;;;4980853;28;88685;-85
2023/01/02 04:39:33;;;;;;;3.22;2.30;;;20.40;69.70;;;;;;4980599;28;88832;-86
2023/01/02 04:41:58;;;;;;;2.53;2.13;;;20.40;69.70;;;;;;4981674;28;88326;-86
2023/01/02 04:44:24;;;;;;;2.50;2.08;;;20.40;69.80;;;;;;4988431;28;88117;-86
2023/01/02 04:46:49;;;;;;;3.83;1.95;;;20.40;69.60;;;;;;4981665;28;87274;-87
2023/01/02 04:49:15;;;;;;;3.10;2.10;;;20.40;69.80;;;;;;4979197;28;88189;-85
2023/01/02 04:51:41;;;;;;;2.78;1.60;;;20.40;69.90;;;;;;4981696;28;88657;-86
2023/01/02 04:54:10;;;;;;;2.42;2.10;;;20.40;69.70;;;;;;4986978;28;87018;-86
2023/01/02 04:56:35;;;;;;;4.15;2.50;;;20.40;69.90;;;;;;4979089;28;87761;-86
2023/01/02 04:59:01;;;;;;;1.80;1.60;;;20.40;69.60;;;;;;4980973;28;88648;-87
2023/01/02 05:01:26;;;;;;;3.40;1.98;;;20.40;69.60;;;;;;4981014;28;87381;-85
2023/01/02 05:03:52;;;;;;;2.80;1.77;;;20.40;69.70;;;;;;4979757;28;87295;-86
2023/01/02 05:06:18;;;;;;;2.58;1.70;;;20.40;69.50;;;;;;4999440;27;89675;-87
2023/01/02 05:08:44;;;;;;;2.67;2.03;;;20.40;69.60;;;;;;5011474;27;89161;-86
2023/01/02 05:11:16;;;;;;;2.67;2.08;;;20.40;69.40;;;;;;5012827;28;88738;-85
2023/01/02 05:13:42;;;;;;;2.45;2.10;;;20.40;69.50;;;;;;5012813;27;88324;-86
2023/01/02 05:16:09;;;;;;;3.15;1.95;;;20.40;69.50;;;;;;5011536;27;87581;-87
2023/01/02 05:18:34;;;;;;;2.83;2.03;;;20.40;69.60;;;;;;5012240;27;87376;-84
2023/01/02 05:24:00;;;;;;;2.05;1.60;;;20.40;69.60;;;;;;5019956;28;87454;-85
2023/01/02 05:26:27;;;;;;;7.80;2.58;;;20.40;69.00;;;;;;5017658;28;87952;-86
2023/01/02 05:28:54;;;;;;;8.48;2.83;;;20.50;68.90;;;;;;5021588;28;87685;-85
2023/01/02 05:31:20;;;;;;;5.13;1.95;;;20.60;68.80;;;;;;5018166;28;87865;-87
2023/01/02 05:33:53;;;;;;;10.68;1.95;;;20.60;69.10;;;;;;5016809;28;88662;-85
2023/01/02 05:36:22;;;;;;;5.80;1.70;;;20.60;68.80;;;;;;5018321;28;88601;-86
2023/01/02 05:38:48;;;;;;;7.60;2.40;;;20.50;68.90;;;;;;5017989;27;88673;-86
2023/01/02 05:41:15;;;;;;;6.68;2.42;;;20.40;68.90;;;;;;5002105;28;89796;-86
2023/01/02 05:43:40;;;;;;;5.65;2.20;;;20.40;69.00;;;;;;5018564;28;87031;-87
2023/01/02 05:46:17;;;;;;;5.38;2.38;;;20.40;69.20;;;;;;5017454;27;87502;-87
2023/01/02 05:48:43;;;;;;;4.07;2.08;;;20.40;69.70;;;;;;5018544;27;88844;-88
2023/01/02 05:51:11;;;;;;;6.38;2.10;;;20.40;69.00;;;;;;5021600;27;87927;-87
2023/01/02 05:53:37;;;;;;;5.70;2.35;;;20.40;68.30;;;;;;5019426;28;87021;-85
2023/01/02 05:56:12;;;;;;;8.73;2.75;;;20.30;66.90;;;;;;5020636;28;87841;-86
2023/01/02 05:58:40;;;;;;;10.18;2.78;;;20.30;66.70;;;;;;5017427;28;89327;-86
2023/01/02 06:01:12;;;;;;;7.20;2.70;;;20.30;67.50;;;;;;5014676;27;88762;-84
2023/01/02 06:03:41;;;;;;;7.50;2.30;;;20.30;66.50;;;;;;5011798;27;87595;-85
2023/01/02 06:06:09;;;;;;;7.30;2.17;;;20.20;66.70;;;;;;5011765;27;87368;-85
2023/01/02 06:08:35;;;;;;;7.13;2.63;;;20.20;66.00;;;;;;5009211;27;90291;-82
2023/01/02 06:11:02;;;;;;;5.43;2.22;;;20.20;66.70;;;;;;5011700;28;89743;-88
2023/01/02 06:13:29;;;;;;;6.60;2.15;;;20.20;65.70;;;;;;5016021;27;86869;-89
2023/01/02 06:15:56;;;;;;;6.72;2.10;;;20.20;65.40;;;;;;5015550;27;86509;-89
2023/01/02 06:18:22;;;;;;;6.32;2.55;;;20.20;65.20;;;;;;5016025;27;87632;-89
2023/01/02 06:20:48;;;;;;;6.75;2.20;;;20.20;65.20;;;;;;5015009;27;88016;-87
2023/01/02 06:23:13;;;;;;;4.30;2.22;;;20.10;65.00;;;;;;5014598;28;88412;-85
2023/01/02 06:25:39;;;;;;;6.95;2.35;;;20.10;65.00;;;;;;5009197;27;86842;-86
2023/01/02 06:28:05;;;;;;;6.28;2.63;;;20.10;65.00;;;;;;5011217;27;87614;-86
2023/01/02 06:30:30;;;;;;;7.38;2.10;;;20.10;64.70;;;;;;5011908;27;87053;-87
2023/01/02 06:32:56;;;;;;;7.13;2.03;;;20.00;64.70;;;;;;5011922;27;87332;-87
2023/01/02 06:35:22;;;;;;;5.18;2.20;;;20.00;64.70;;;;;;5010963;27;87336;-86
2023/01/02 06:37:48;;;;;;;5.72;2.08;;;20.00;64.90;;;;;;5012932;28;87896;-86
2023/01/02 06:40:14;;;;;;;5.32;2.35;;;20.00;64.60;;;;;;5011759;27;87103;-86
2023/01/02 06:42:42;;;;;;;8.38;2.25;;;20.00;64.70;;;;;;5010940;27;87374;-87
2023/01/02 06:45:08;;;;;;;7.70;1.90;;;20.00;64.30;;;;;;5010316;27;87543;-87
2023/01/02 06:47:36;;;;;;;3.95;2.20;;;19.90;64.30;;;;;;5010308;27;91737;-86
2023/01/02 06:50:03;;;;;;;7.65;2.55;;;19.90;64.20;;;;;;5011881;28;91045;-86
2023/01/02 06:52:28;;;;;;;6.78;2.00;;;19.90;64.40;;;;;;5011651;27;87286;-84
2023/01/02 06:54:54;;;;;;;7.85;1.90;;;19.90;64.20;;;;;;5009764;27;88821;-87
2023/01/02 06:57:20;;;;;;;5.35;2.05;;;19.90;64.20;;;;;;5010638;27;87470;-86
2023/01/02 06:59:46;;;;;;;3.90;1.90;;;19.90;64.20;;;;;;5011316;27;87892;-86
2023/01/02 07:02:12;;;;;;;6.63;2.65;;;19.90;64.00;;;;;;5001707;28;87268;-85
2023/01/02 07:04:38;;;;;;;8.07;2.28;;;19.90;64.00;;;;;;5010544;27;87553;-87
2023/01/02 07:07:04;;;;;;;4.75;1.70;;;19.80;64.00;;;;;;5010637;27;88436;-87
2023/01/02 07:09:30;;;;;;;4.40;2.10;;;19.90;63.80;;;;;;5009819;27;87722;-84
2023/01/02 07:11:57;;;;;;;6.57;1.83;;;19.90;63.80;;;;;;5001492;28;96241;-87
2023/01/02 07:14:23;;;;;;;4.63;2.00;;;19.80;63.70;;;;;;5010420;27;87429;-84
2023/01/02 07:16:49;;;;;;;4.55;1.70;;;19.90;63.60;;;;;;5009399;28;90787;-84
2023/01/02 07:19:14;;;;;;;4.22;1.80;;;19.90;63.50;;;;;;5010332;27;88552;-84
2023/01/02 07:21:40;;;;;;;6.85;1.77;;;19.90;63.30;;;;;;5007401;27;87689;-84
2023/01/02 07:24:06;;;;;;;6.85;2.08;;;19.90;63.30;;;;;;5009372;27;87785;-87
2023/01/02 07:26:31;;;;;;;5.63;2.13;;;20.00;63.70;;;;;;5009684;27;87002;-84
2023/01/02 07:28:57;;;;;;;7.05;2.30;;;20.10;63.80;;;;;;5012783;28;88270;-87
2023/01/02 07:31:23;;;;;;;7.05;2.10;;;20.10;63.90;;;;;;5018686;27;87513;-85
2023/01/02 07:33:49;;;;;;;9.02;2.30;;;20.20;64.40;;;;;;5010693;27;87473;-87
2023/01/02 07:36:18;;;;;;;7.18;2.50;;;20.20;64.50;;;;;;5008412;27;90346;-87
2023/01/02 07:38:48;;;;;;;7.78;2.40;;;20.20;64.30;;;;;;5011304;27;89368;-89
2023/01/02 07:41:15;;;;;;;5.88;2.50;;;20.20;64.70;;;;;;5013773;28;86930;-87
2023/01/02 07:43:41;;;;;;;9.05;2.47;;;20.40;64.80;;;;;;5013308;27;93881;-85
2023/01/02 07:46:07;;;;;;;7.07;2.10;;;20.50;64.90;;;;;;5009465;28;92457;-87
2023/01/02 07:48:33;;;;;;;8.65;2.33;;;20.50;64.60;;;;;;5012803;27;87644;-89
2023/01/02 07:51:03;;;;;;;6.45;2.40;;;20.60;64.90;;;;;;5013574;27;87559;-89
2023/01/02 07:53:29;;;;;;;4.68;2.38;;;20.50;65.00;;;;;;5013328;27;87736;-91
2023/01/02 07:55:58;;;;;;;9.07;2.88;;;20.60;65.30;;;;;;5013131;28;88102;-87
2023/01/02 07:58:24;;;;;;;7.57;3.03;;;20.50;66.00;;;;;;5011805;27;87646;-89
2023/01/02 08:00:50;;;;;;;7.55;2.47;;;20.50;66.50;;;;;;5012800;27;88144;-90
2023/01/02 08:03:16;;;;;;;9.60;2.75;;;20.40;66.60;;;;;;5016148;27;87566;-90
2023/01/02 08:05:42;;;;;;;7.85;2.70;;;20.40;66.80;;;;;;5030291;27;88519;-88
2023/01/02 08:08:08;;;;;;;5.35;2.53;;;20.50;66.70;;;;;;5013935;28;87854;-89
2023/01/02 08:10:36;;;;;;;9.80;2.83;;;20.50;67.10;;;;;;5034941;27;87520;-88
2023/01/02 08:13:08;;;;;;;4.88;2.50;;;20.50;66.90;;;;;;5011981;27;89399;-91
2023/01/02 08:15:34;;;;;;;6.82;2.88;;;20.60;67.10;;;;;;5013806;27;87814;-89
2023/01/02 08:17:59;;;;;;;4.80;2.88;;;20.60;67.80;;;;;;5013782;27;87900;-89
2023/01/02 08:20:26;;;;;;;7.53;3.13;;;20.60;67.60;;;;;;5012772;27;87286;-90
2023/01/02 08:22:51;;;;;;;8.13;2.88;;;20.60;67.10;;;;;;5014762;28;87505;-90
2023/01/02 08:25:17;;;;;;;7.78;3.13;;;20.60;67.40;;;;;;5012796;27;89334;-89
2023/01/02 08:27:43;;;;;;;7.30;2.70;;;20.70;67.60;;;;;;5013273;27;88019;-91
2023/01/02 08:30:10;;;;;;;4.80;2.58;;;20.70;67.40;;;;;;5012720;27;87264;-90
2023/01/02 08:32:39;;;;;;;7.85;2.63;;;20.70;67.30;;;;;;4988810;27;90610;-87
2023/01/02 08:35:06;;;;;;;7.53;3.53;;;20.70;67.60;;;;;;5023184;27;88627;-92
2023/01/02 08:37:32;;;;;;;10.38;3.17;;;20.70;68.00;;;;;;5012735;27;90821;-91
2023/01/02 08:39:58;;;;;;;8.30;4.05;;;20.70;68.90;;;;;;5013970;27;87732;-91
2023/01/02 08:42:24;;;;;;;13.85;4.63;;;20.80;69.30;;;;;;5012646;27;87326;-90
2023/01/02 08:44:50;;;;;;;9.20;4.40;;;20.80;70.40;;;;;;5012867;27;88076;-90
2023/01/02 08:47:15;;;;;;;11.90;4.43;;;20.80;69.50;;;;;;5012313;28;90474;-90
2023/01/02 08:49:41;;;;;;;11.93;4.38;;;20.80;69.30;;;;;;5014320;27;88776;-87
2023/01/02 08:52:07;;;;;;;11.68;3.90;;;20.70;69.20;;;;;;5009970;27;87534;-84
2023/01/02 08:54:33;;;;;;;10.13;4.00;;;20.70;66.80;;;;;;5009616;27;88360;-88
2023/01/02 08:56:59;;;;;;;9.95;4.15;;;20.70;67.30;;;;;;5012295;27;88484;-90
2023/01/02 08:59:25;;;;;;;12.98;4.10;;;20.80;67.50;;;;;;5009368;27;87164;-89
2023/01/02 09:01:51;;;;;;;11.63;4.03;;;20.70;67.90;;;;;;5009323;28;87287;-90
2023/01/02 09:04:18;;;;;;;12.80;3.20;;;20.80;67.70;;;;;;5008353;27;89276;-91
2023/01/02 09:06:44;;;;;;;10.18;3.88;;;20.80;64.50;;;;;;5007885;27;88467;-86
2023/01/02 09:09:12;;;;;;;11.57;3.55;;;20.70;63.70;;;;;;5007927;27;87249;-87
2023/01/02 09:11:42;;;;;;;18.27;4.45;;;20.70;65.30;;;;;;5021536;27;90480;-87
2023/01/02 09:14:07;;;;;;;13.75;4.28;;;20.70;66.40;;;;;;5007388;28;88392;-87
2023/01/02 09:16:33;;;;;;;13.90;4.25;;;20.80;66.60;;;;;;5001965;28;92291;-84
2023/01/02 09:19:00;;;;;;;6.68;3.63;;;20.90;67.20;;;;;;5016726;27;86946;-90
2023/01/02 09:21:26;;;;;;;14.27;3.95;;;20.90;66.80;;;;;;5013886;27;87674;-89
2023/01/02 09:23:52;;;;;;;14.75;4.15;;;21.00;67.30;;;;;;5018722;27;88642;-88
2023/01/02 09:26:18;;;;;;;9.70;4.07;;;20.90;67.30;;;;;;5018056;28;87366;-90
2023/01/02 09:28:44;;;;;;;6.78;3.83;;;20.80;67.50;;;;;;5015624;27;87374;-86
2023/01/02 09:31:12;;;;;;;15.27;3.75;;;20.70;67.70;;;;;;5014877;27;87403;-88
2023/01/02 09:33:58;;;;;;;11.30;3.95;;;20.70;68.50;;;;;;5014020;27;88962;-90
2023/01/02 09:36:24;;;;;;;8.30;3.88;;;20.60;68.70;;;;;;5013258;27;87949;-88
2023/01/02 09:38:55;;;;;;;12.70;3.80;;;20.60;68.70;;;;;;5013150;27;88528;-88
2023/01/02 09:41:20;;;;;;;7.50;3.78;;;20.70;68.50;;;;;;5014190;28;87095;-87
2023/01/02 09:43:55;;;;;;;9.85;3.83;;;20.70;68.50;;;;;;4993254;28;91623;-90
2023/01/02 09:46:50;;;;;;;16.75;5.30;;;20.70;68.70;;;;;;4993022;28;91094;-88
2023/01/02 09:49:24;;;;;;;16.13;5.43;;;20.60;68.80;;;;;;4994666;28;87227;-86
2023/01/02 09:51:50;;;;;;;16.58;5.40;;;20.50;69.00;;;;;;4987091;28;87588;-89
2023/01/02 09:54:25;;;;;;;11.18;4.60;;;20.50;69.30;;;;;;4993168;28;88252;-89
2023/01/02 09:57:13;;;;;;;15.60;5.30;;;20.50;69.10;;;;;;4985012;28;91318;-90
2023/01/02 10:00:02;;;;;;;14.40;5.18;;;20.50;69.20;;;;;;4993998;28;87639;-89
2023/01/02 10:02:55;;;;;;;17.35;5.28;;;20.50;69.30;;;;;;4994095;28;88240;-90
2023/01/02 10:05:30;;;;;;;15.88;5.45;;;20.40;69.10;;;;;;4993548;28;90166;-87
2023/01/02 10:07:58;;;;;;;17.58;5.47;;;20.40;69.40;;;;;;4995088;28;89762;-88
2023/01/02 10:10:44;;;;;;;16.83;6.00;;;20.40;69.40;;;;;;4994185;28;87406;-89
2023/01/02 10:13:24;;;;;;;16.63;5.55;;;20.40;69.40;;;;;;4994023;28;87556;-86
2023/01/02 10:15:53;;;;;;;16.30;5.38;;;20.40;69.20;;;;;;4993402;28;89043;-88
2023/01/02 10:18:34;;;;;;;17.35;6.25;;;20.40;69.50;;;;;;4994066;28;88586;-87
2023/01/02 10:21:05;;;;;;;14.70;5.72;;;20.40;69.50;;;;;;4994247;28;87633;-89
2023/01/02 10:23:46;;;;;;;16.05;5.55;;;20.40;69.50;;;;;;4995500;28;87139;-90
2023/01/02 10:26:17;;;;;;;15.57;6.00;;;20.40;69.60;;;;;;4994991;28;87620;-89
2023/01/02 10:28:51;;;;;;;12.23;5.18;;;20.40;69.50;;;;;;4995072;28;87656;-90
2023/01/02 10:31:43;;;;;;;15.82;5.88;;;20.40;69.50;;;;;;5017283;28;88855;-88
2023/01/02 10:34:17;;;;;;;16.50;5.90;;;20.40;69.50;;;;;;4971240;28;90170;-89
2023/01/02 10:36:54;;;;;;;12.77;5.38;;;20.40;69.50;;;;;;4971670;28;88265;-87
2023/01/02 10:39:24;;;;;;;15.93;5.82;;;20.40;69.60;;;;;;4954614;28;91895;-89
2023/01/02 10:41:56;;;;;;;16.80;5.78;;;20.50;69.50;;;;;;4971775;28;87818;-89
2023/01/02 10:44:32;;;;;;;14.45;5.30;;;20.50;69.60;;;;;;4971931;28;87381;-89
2023/01/02 10:47:10;;;;;;;10.68;5.38;;;20.50;69.20;;;;;;4972840;28;90731;-89
2023/01/02 10:49:37;;;;;;;11.70;5.32;;;20.60;69.50;;;;;;4972975;28;86956;-90
2023/01/02 10:52:10;;;;;;;16.65;5.50;;;20.50;69.20;;;;;;4972294;28;87656;-89
2023/01/02 10:54:55;;;;;;;12.88;4.75;;;20.60;69.20;;;;;;4969847;28;88104;-88
2023/01/02 10:57:44;;;;;;;16.33;5.18;;;20.60;69.00;;;;;;4965199;28;92801;-89
2023/01/02 11:00:33;;;;;;;14.85;5.53;;;20.70;69.00;;;;;;4962606;28;89554;-88
2023/01/02 11:03:15;;;;;;;13.27;4.93;;;20.80;68.80;;;;;;4971167;28;87196;-90
2023/01/02 11:05:47;;;;;;;11.57;4.88;;;20.90;68.20;;;;;;4970217;28;95519;-91
2023/01/02 11:08:16;;;;;;;11.95;4.70;;;21.00;68.20;;;;;;4971589;28;88580;-89
2023/01/02 11:10:42;;;;;;;13.15;4.45;;;21.10;68.20;;;;;;4983546;28;88093;-91
2023/01/02 11:13:12;;;;;;;16.98;5.35;;;21.10;67.90;;;;;;5013499;28;87432;-89
2023/01/02 11:15:52;;;;;;;12.05;4.60;;;21.10;67.80;;;;;;5021572;28;87468;-90
2023/01/02 11:18:30;;;;;;;12.73;4.63;;;21.20;67.80;;;;;;5030589;28;87688;-89
2023/01/02 11:21:04;;;;;;;11.73;4.63;;;21.20;67.90;;;;;;5030901;27;88164;-90
2023/01/02 11:23:41;;;;;;;14.98;5.00;;;21.20;67.90;;;;;;5030765;27;88307;-89
2023/01/02 11:26:20;;;;;;;11.52;4.43;;;21.20;67.70;;;;;;5031800;28;87330;-90
2023/01/02 11:28:50;;;;;;;11.85;5.03;;;21.10;67.80;;;;;;5030581;28;93157;-88
2023/01/02 11:31:17;;;;;;;11.25;4.13;;;21.10;68.10;;;;;;5028194;28;89147;-89
2023/01/02 11:33:48;;;;;;;10.93;4.85;;;21.20;67.50;;;;;;5030099;28;87638;-90
2023/01/02 11:36:15;;;;;;;12.40;5.00;;;21.10;67.80;;;;;;5029571;28;88914;-88
2023/01/02 11:38:46;;;;;;;13.18;4.40;;;21.10;68.10;;;;;;5029913;28;89218;-87
2023/01/02 11:41:22;;;;;;;11.95;4.53;;;21.00;68.00;;;;;;5014053;28;86900;-87
2023/01/02 11:43:56;;;;;;;10.82;4.88;;;21.00;68.40;;;;;;5013232;28;87598;-91
2023/01/02 11:46:34;;;;;;;11.25;4.70;;;21.00;68.30;;;;;;5013676;27;86962;-89
2023/01/02 11:49:22;;;;;;;11.90;5.28;;;20.90;68.40;;;;;;5012099;27;89235;-89
2023/01/02 11:51:55;;;;;;;11.93;4.47;;;20.90;68.50;;;;;;5014077;27;88840;-87
2023/01/02 11:54:40;;;;;;;12.50;4.20;;;20.90;68.50;;;;;;5012681;27;87334;-89
2023/01/02 11:57:18;;;;;;;9.10;4.15;;;20.90;68.50;;;;;;5013058;28;93416;-89
2023/01/02 11:59:47;;;;;;;10.40;3.95;;;20.80;68.90;;;;;;5013534;27;88590;-89
2023/01/02 12:02:24;;;;;;;11.43;3.88;;;20.90;68.20;;;;;;5013991;28;89032;-89
2023/01/02 12:04:50;;;;;;;10.93;4.13;;;21.00;68.00;;;;;;5013927;28;86906;-89
2023/01/02 12:07:42;;;;;;;10.02;4.38;;;21.00;67.70;;;;;;5012736;27;86746;-89
2023/01/02 12:10:47;;;;;;;9.48;4.00;;;21.00;67.90;;;;;;5012709;27;88817;-89
2023/01/02 12:13:31;;;;;;;12.85;4.65;;;20.90;68.10;;;;;;5012407;27;89735;-89
2023/01/02 12:16:18;;;;;;;11.10;4.53;;;20.90;68.10;;;;;;5011642;27;88404;-89
2023/01/02 12:19:09;;;;;;;9.32;4.07;;;20.90;67.90;;;;;;5011559;27;87055;-90
2023/01/02 12:22:00;;;;;;;8.25;3.83;;;20.90;68.00;;;;;;5012431;27;87655;-89
2023/01/02 12:24:28;;;;;;;12.20;4.28;;;20.90;68.00;;;;;;4987245;28;87962;-89
2023/01/02 12:27:09;;;;;;;13.35;4.18;;;21.00;66.60;;;;;;4987349;28;87456;-86
2023/01/02 12:29:44;;;;;;;9.20;3.90;;;21.10;65.80;;;;;;4987462;28;90295;-87
2023/01/02 12:32:26;;;;;;;10.90;4.25;;;21.10;66.50;;;;;;4988798;28;88567;-88
2023/01/02 12:35:45;;;;;;;11.48;4.03;;;21.10;66.90;;;;;;4986800;28;91539;-87
2023/01/02 12:38:21;;;;;;;12.05;3.92;;;21.10;66.90;;;;;;4922290;28;87559;-88
2023/01/02 12:41:05;;;;;;;12.43;4.05;;;21.10;67.20;;;;;;4926961;28;90278;-90
2023/01/02 12:44:14;;;;;;;8.68;4.32;;;21.20;66.60;;;;;;4922816;28;89645;-90
2023/01/02 12:46:47;;;;;;;11.05;4.40;;;21.10;66.10;;;;;;4891487;28;89329;-90
2023/01/02 12:49:40;;;;;;;9.77;4.25;;;21.00;66.30;;;;;;4883490;28;87246;-89
2023/01/02 12:52:28;;;;;;;10.02;4.50;;;21.00;66.40;;;;;;4893888;28;87928;-90
2023/01/02 12:55:02;;;;;;;8.15;3.70;;;21.00;66.70;;;;;;4893488;28;89459;-88
2023/01/02 12:57:42;;;;;;;10.35;4.07;;;21.00;66.70;;;;;;4894185;28;87685;-86
2023/01/02 13:00:26;;;;;;;;;;;20.90;66.80;;;;;;4894513;28;87282;-86
2023/01/02 13:02:54;;;;;;;7.80;4.05;;;20.90;66.80;;;;;;4898812;28;89985;-88
2023/01/02 13:05:26;;;;;;;8.00;3.73;;;20.90;67.00;;;;;;4914424;28;88256;-89
2023/01/02 13:07:57;;;;;;;12.98;4.10;;;20.90;66.90;;;;;;4902535;28;95502;-90
2023/01/02 13:10:27;;;;;;;8.20;3.63;;;20.90;67.00;;;;;;4960847;28;89059;-87
2023/01/02 13:12:57;;;;;;;8.55;3.92;;;20.90;67.00;;;;;;4950090;28;87510;-89
2023/01/02 13:15:46;;;;;;;8.38;3.78;;;20.90;66.90;;;;;;4941587;28;88572;-90